sensor_id;sensor_type;location;lat;lon;timestamp;temperature;humidity
49489;SHT31;35382;51.484;11.476;2024-01-10T00:00:36;-10.37;92.21
49489;SHT31;35382;51.484;11.476;2024-01-10T00:03:02;-10.37;92.54
49489;SHT31;35382;51.484;11.476;2024-01-10T00:05:27;-10.35;92.74
49489;SHT31;35382;51.484;11.476;2024-01-10T00:07:52;-10.47;92.37
49489;SHT31;35382;51.484;11.476;2024-01-10T00:10:18;-10.47;92.02
49489;SHT31;35382;51.484;11.476;2024-01-10T00:12:43;-10.47;92.17
49489;SHT31;35382;51.484;11.476;2024-01-10T00:15:09;-10.38;92.06
49489;SHT31;35382;51.484;11.476;2024-01-10T00:17:34;-10.45;92.55
49489;SHT31;35382;51.484;11.476;2024-01-10T00:20:00;-10.49;92.36
49489;SHT31;35382;51.484;11.476;2024-01-10T00:22:25;-10.37;92.51
49489;SHT31;35382;51.484;11.476;2024-01-10T00:24:51;-10.07;92.20
49489;SHT31;35382;51.484;11.476;2024-01-10T00:27:16;-10.16;92.16
49489;SHT31;35382;51.484;11.476;2024-01-10T00:29:41;-10.23;92.37
49489;SHT31;35382;51.484;11.476;2024-01-10T00:32:07;-10.24;92.53
49489;SHT31;35382;51.484;11.476;2024-01-10T00:34:32;-10.27;92.93
49489;SHT31;35382;51.484;11.476;2024-01-10T00:36:59;-10.21;93.10
49489;SHT31;35382;51.484;11.476;2024-01-10T00:39:24;-9.93;92.69
49489;SHT31;35382;51.484;11.476;2024-01-10T00:41:50;-9.94;91.99
49489;SHT31;35382;51.484;11.476;2024-01-10T00:44:16;-9.96;92.03
49489;SHT31;35382;51.484;11.476;2024-01-10T00:46:41;-10.16;92.22
49489;SHT31;35382;51.484;11.476;2024-01-10T00:49:06;-10.06;92.51
49489;SHT31;35382;51.484;11.476;2024-01-10T00:51:32;-9.99;91.71
49489;SHT31;35382;51.484;11.476;2024-01-10T00:53:57;-9.97;91.70
49489;SHT31;35382;51.484;11.476;2024-01-10T00:56:22;-10.07;92.19
49489;SHT31;35382;51.484;11.476;2024-01-10T00:58:48;-10.07;92.37
49489;SHT31;35382;51.484;11.476;2024-01-10T01:01:13;-10.12;92.23
49489;SHT31;35382;51.484;11.476;2024-01-10T01:03:38;-9.97;92.45
49489;SHT31;35382;51.484;11.476;2024-01-10T01:06:04;-9.97;91.44
49489;SHT31;35382;51.484;11.476;2024-01-10T01:08:29;-10.20;92.02
49489;SHT31;35382;51.484;11.476;2024-01-10T01:10:55;-10.09;92.07
49489;SHT31;35382;51.484;11.476;2024-01-10T01:13:20;-10.10;91.88
49489;SHT31;35382;51.484;11.476;2024-01-10T01:15:45;-9.99;91.97
49489;SHT31;35382;51.484;11.476;2024-01-10T01:18:11;-10.04;91.88
49489;SHT31;35382;51.484;11.476;2024-01-10T01:20:36;-10.03;92.04
49489;SHT31;35382;51.484;11.476;2024-01-10T01:23:02;-9.99;91.97
49489;SHT31;35382;51.484;11.476;2024-01-10T01:25:27;-9.89;91.47
49489;SHT31;35382;51.484;11.476;2024-01-10T01:27:52;-9.91;91.65
49489;SHT31;35382;51.484;11.476;2024-01-10T01:30:18;-10.00;91.51
49489;SHT31;35382;51.484;11.476;2024-01-10T01:32:43;-9.99;91.51
49489;SHT31;35382;51.484;11.476;2024-01-10T01:35:08;-10.17;91.85
49489;SHT31;35382;51.484;11.476;2024-01-10T01:37:34;-10.07;92.13
49489;SHT31;35382;51.484;11.476;2024-01-10T01:39:59;-10.25;92.28
49489;SHT31;35382;51.484;11.476;2024-01-10T01:42:25;-10.23;92.48
49489;SHT31;35382;51.484;11.476;2024-01-10T01:44:50;-10.25;92.38
49489;SHT31;35382;51.484;11.476;2024-01-10T01:47:15;-10.24;92.18
49489;SHT31;35382;51.484;11.476;2024-01-10T01:49:42;-10.25;92.54
49489;SHT31;35382;51.484;11.476;2024-01-10T01:52:07;-10.38;92.41
49489;SHT31;35382;51.484;11.476;2024-01-10T01:54:33;-10.55;92.48
49489;SHT31;35382;51.484;11.476;2024-01-10T01:56:58;-10.57;92.77
49489;SHT31;35382;51.484;11.476;2024-01-10T01:59:24;-10.34;92.60
49489;SHT31;35382;51.484;11.476;2024-01-10T02:01:51;-10.18;92.30
49489;SHT31;35382;51.484;11.476;2024-01-10T02:04:18;-10.37;91.91
49489;SHT31;35382;51.484;11.476;2024-01-10T02:06:43;-10.34;92.05
49489;SHT31;35382;51.484;11.476;2024-01-10T02:09:08;-10.42;92.25
49489;SHT31;35382;51.484;11.476;2024-01-10T02:11:34;-10.49;92.58
49489;SHT31;35382;51.484;11.476;2024-01-10T02:13:59;-10.48;92.83
49489;SHT31;35382;51.484;11.476;2024-01-10T02:16:25;-10.51;93.20
49489;SHT31;35382;51.484;11.476;2024-01-10T02:18:50;-10.62;93.21
49489;SHT31;35382;51.484;11.476;2024-01-10T02:21:16;-10.68;93.27
49489;SHT31;35382;51.484;11.476;2024-01-10T02:23:44;-10.71;93.33
49489;SHT31;35382;51.484;11.476;2024-01-10T02:26:09;-10.72;93.40
49489;SHT31;35382;51.484;11.476;2024-01-10T02:28:35;-10.68;93.53
49489;SHT31;35382;51.484;11.476;2024-01-10T02:31:00;-10.61;93.42
49489;SHT31;35382;51.484;11.476;2024-01-10T02:33:27;-10.62;93.05
49489;SHT31;35382;51.484;11.476;2024-01-10T02:35:53;-10.64;92.98
49489;SHT31;35382;51.484;11.476;2024-01-10T02:38:18;-10.68;93.26
49489;SHT31;35382;51.484;11.476;2024-01-10T02:40:44;-10.67;93.25
49489;SHT31;35382;51.484;11.476;2024-01-10T02:43:09;-10.69;93.51
49489;SHT31;35382;51.484;11.476;2024-01-10T02:45:34;-10.72;93.67
49489;SHT31;35382;51.484;11.476;2024-01-10T02:48:00;-10.69;93.51
49489;SHT31;35382;51.484;11.476;2024-01-10T02:50:25;-10.71;93.57
49489;SHT31;35382;51.484;11.476;2024-01-10T02:52:51;-10.57;93.70
49489;SHT31;35382;51.484;11.476;2024-01-10T02:55:16;-10.59;93.40
49489;SHT31;35382;51.484;11.476;2024-01-10T02:57:41;-10.62;93.31
49489;SHT31;35382;51.484;11.476;2024-01-10T03:00:07;-10.64;93.29
49489;SHT31;35382;51.484;11.476;2024-01-10T03:02:33;-10.69;93.06
49489;SHT31;35382;51.484;11.476;2024-01-10T03:04:58;-10.72;93.17
49489;SHT31;35382;51.484;11.476;2024-01-10T03:07:23;-10.75;93.68
49489;SHT31;35382;51.484;11.476;2024-01-10T03:09:49;-10.71;93.79
49489;SHT31;35382;51.484;11.476;2024-01-10T03:12:14;-10.75;93.73
49489;SHT31;35382;51.484;11.476;2024-01-10T03:14:39;-10.76;93.99
49489;SHT31;35382;51.484;11.476;2024-01-10T03:17:05;-10.73;93.66
49489;SHT31;35382;51.484;11.476;2024-01-10T03:19:30;-10.76;93.87
49489;SHT31;35382;51.484;11.476;2024-01-10T03:21:55;-10.72;93.82
49489;SHT31;35382;51.484;11.476;2024-01-10T03:24:21;-10.75;93.96
49489;SHT31;35382;51.484;11.476;2024-01-10T03:26:46;-10.67;93.72
49489;SHT31;35382;51.484;11.476;2024-01-10T03:29:11;-10.64;93.46
49489;SHT31;35382;51.484;11.476;2024-01-10T03:31:37;-10.68;93.41
49489;SHT31;35382;51.484;11.476;2024-01-10T03:34:03;-10.72;93.39
49489;SHT31;35382;51.484;11.476;2024-01-10T03:36:28;-10.71;93.56
49489;SHT31;35382;51.484;11.476;2024-01-10T03:38:54;-10.75;93.91
49489;SHT31;35382;51.484;11.476;2024-01-10T03:41:20;-10.72;93.85
49489;SHT31;35382;51.484;11.476;2024-01-10T03:43:46;-10.75;93.77
49489;SHT31;35382;51.484;11.476;2024-01-10T03:46:12;-10.71;93.61
49489;SHT31;35382;51.484;11.476;2024-01-10T03:48:38;-10.68;93.54
49489;SHT31;35382;51.484;11.476;2024-01-10T03:51:03;-10.72;93.73
49489;SHT31;35382;51.484;11.476;2024-01-10T03:53:30;-10.75;94.02
49489;SHT31;35382;51.484;11.476;2024-01-10T03:55:55;-10.75;94.08
49489;SHT31;35382;51.484;11.476;2024-01-10T03:58:22;-10.79;93.91
49489;SHT31;35382;51.484;11.476;2024-01-10T04:00:49;-10.85;93.76
49489;SHT31;35382;51.484;11.476;2024-01-10T04:03:15;-10.93;93.94
49489;SHT31;35382;51.484;11.476;2024-01-10T04:05:41;-10.98;94.07
49489;SHT31;35382;51.484;11.476;2024-01-10T04:08:06;-10.99;93.51
49489;SHT31;35382;51.484;11.476;2024-01-10T04:10:32;-10.98;93.83
49489;SHT31;35382;51.484;11.476;2024-01-10T04:12:57;-11.01;93.70
49489;SHT31;35382;51.484;11.476;2024-01-10T04:15:22;-11.06;93.82
49489;SHT31;35382;51.484;11.476;2024-01-10T04:17:48;-11.06;93.51
49489;SHT31;35382;51.484;11.476;2024-01-10T04:20:13;-11.09;93.69
49489;SHT31;35382;51.484;11.476;2024-01-10T04:22:39;-10.95;93.47
49489;SHT31;35382;51.484;11.476;2024-01-10T04:25:06;-10.86;93.67
49489;SHT31;35382;51.484;11.476;2024-01-10T04:27:32;-10.96;93.97
49489;SHT31;35382;51.484;11.476;2024-01-10T04:29:57;-10.82;93.35
49489;SHT31;35382;51.484;11.476;2024-01-10T04:32:22;-10.89;93.15
49489;SHT31;35382;51.484;11.476;2024-01-10T04:34:48;-10.85;92.78
49489;SHT31;35382;51.484;11.476;2024-01-10T04:37:13;-10.89;92.77
49489;SHT31;35382;51.484;11.476;2024-01-10T04:39:38;-10.91;92.74
49489;SHT31;35382;51.484;11.476;2024-01-10T04:42:09;-10.88;92.77
49489;SHT31;35382;51.484;11.476;2024-01-10T04:44:35;-10.98;92.66
49489;SHT31;35382;51.484;11.476;2024-01-10T04:47:00;-11.08;93.73
49489;SHT31;35382;51.484;11.476;2024-01-10T04:49:28;-11.06;93.85
49489;SHT31;35382;51.484;11.476;2024-01-10T04:51:54;-11.06;94.35
49489;SHT31;35382;51.484;11.476;2024-01-10T04:54:19;-11.01;94.40
49489;SHT31;35382;51.484;11.476;2024-01-10T04:56:45;-11.03;94.22
49489;SHT31;35382;51.484;11.476;2024-01-10T04:59:10;-11.02;94.32
49489;SHT31;35382;51.484;11.476;2024-01-10T05:01:35;-10.99;94.27
49489;SHT31;35382;51.484;11.476;2024-01-10T05:04:01;-10.96;94.24
49489;SHT31;35382;51.484;11.476;2024-01-10T05:06:26;-11.05;94.17
49489;SHT31;35382;51.484;11.476;2024-01-10T05:08:52;-10.98;94.50
49489;SHT31;35382;51.484;11.476;2024-01-10T05:11:17;-11.02;94.51
49489;SHT31;35382;51.484;11.476;2024-01-10T05:13:43;-10.95;94.58
49489;SHT31;35382;51.484;11.476;2024-01-10T05:16:09;-10.91;94.49
49489;SHT31;35382;51.484;11.476;2024-01-10T05:18:34;-10.82;94.27
49489;SHT31;35382;51.484;11.476;2024-01-10T05:21:00;-10.75;94.17
49489;SHT31;35382;51.484;11.476;2024-01-10T05:23:29;-10.68;93.74
49489;SHT31;35382;51.484;11.476;2024-01-10T05:25:55;-10.75;93.63
49489;SHT31;35382;51.484;11.476;2024-01-10T05:28:20;-10.75;94.02
49489;SHT31;35382;51.484;11.476;2024-01-10T05:30:45;-10.73;93.90
49489;SHT31;35382;51.484;11.476;2024-01-10T05:33:11;-10.76;93.66
49489;SHT31;35382;51.484;11.476;2024-01-10T05:35:38;-10.92;93.71
49489;SHT31;35382;51.484;11.476;2024-01-10T05:38:03;-10.93;93.88
49489;SHT31;35382;51.484;11.476;2024-01-10T05:40:31;-10.93;93.83
49489;SHT31;35382;51.484;11.476;2024-01-10T05:42:57;-10.91;93.49
49489;SHT31;35382;51.484;11.476;2024-01-10T05:45:23;-10.93;93.29
49489;SHT31;35382;51.484;11.476;2024-01-10T05:47:48;-10.95;93.20
49489;SHT31;35382;51.484;11.476;2024-01-10T05:50:14;-11.02;93.19
49489;SHT31;35382;51.484;11.476;2024-01-10T05:52:39;-11.09;93.45
49489;SHT31;35382;51.484;11.476;2024-01-10T05:55:05;-11.09;93.58
49489;SHT31;35382;51.484;11.476;2024-01-10T05:57:31;-11.15;93.59
49489;SHT31;35382;51.484;11.476;2024-01-10T05:59:56;-11.15;93.64
49489;SHT31;35382;51.484;11.476;2024-01-10T06:02:22;-11.20;93.57
49489;SHT31;35382;51.484;11.476;2024-01-10T06:04:47;-11.19;93.48
49489;SHT31;35382;51.484;11.476;2024-01-10T06:07:13;-11.26;93.63
49489;SHT31;35382;51.484;11.476;2024-01-10T06:09:38;-11.27;93.80
49489;SHT31;35382;51.484;11.476;2024-01-10T06:12:04;-11.30;93.84
49489;SHT31;35382;51.484;11.476;2024-01-10T06:14:29;-11.36;93.80
49489;SHT31;35382;51.484;11.476;2024-01-10T06:16:55;-11.22;93.78
49489;SHT31;35382;51.484;11.476;2024-01-10T06:19:20;-11.32;93.52
49489;SHT31;35382;51.484;11.476;2024-01-10T06:21:45;-11.37;93.42
49489;SHT31;35382;51.484;11.476;2024-01-10T06:24:11;-11.37;93.80
49489;SHT31;35382;51.484;11.476;2024-01-10T06:26:36;-11.26;94.10
49489;SHT31;35382;51.484;11.476;2024-01-10T06:29:01;-11.33;93.95
49489;SHT31;35382;51.484;11.476;2024-01-10T06:31:27;-11.27;94.08
49489;SHT31;35382;51.484;11.476;2024-01-10T06:33:52;-11.30;94.05
49489;SHT31;35382;51.484;11.476;2024-01-10T06:36:18;-11.22;94.03
49489;SHT31;35382;51.484;11.476;2024-01-10T06:38:43;-11.26;93.84
49489;SHT31;35382;51.484;11.476;2024-01-10T06:41:09;-11.20;93.73
49489;SHT31;35382;51.484;11.476;2024-01-10T06:43:38;-11.14;93.26
49489;SHT31;35382;51.484;11.476;2024-01-10T06:46:03;-11.09;93.44
49489;SHT31;35382;51.484;11.476;2024-01-10T06:48:29;-11.06;93.52
49489;SHT31;35382;51.484;11.476;2024-01-10T06:50:55;-11.01;93.00
49489;SHT31;35382;51.484;11.476;2024-01-10T06:53:20;-11.01;92.96
49489;SHT31;35382;51.484;11.476;2024-01-10T06:55:45;-11.06;93.00
49489;SHT31;35382;51.484;11.476;2024-01-10T06:58:11;-11.08;93.26
49489;SHT31;35382;51.484;11.476;2024-01-10T07:00:36;-11.02;93.28
49489;SHT31;35382;51.484;11.476;2024-01-10T07:03:04;-10.95;93.20
49489;SHT31;35382;51.484;11.476;2024-01-10T07:05:30;-11.01;93.01
49489;SHT31;35382;51.484;11.476;2024-01-10T07:07:55;-10.93;93.19
49489;SHT31;35382;51.484;11.476;2024-01-10T07:10:21;-10.93;93.36
49489;SHT31;35382;51.484;11.476;2024-01-10T07:12:46;-11.01;93.37
49489;SHT31;35382;51.484;11.476;2024-01-10T07:15:12;-10.99;93.64
49489;SHT31;35382;51.484;11.476;2024-01-10T07:17:38;-10.96;93.71
49489;SHT31;35382;51.484;11.476;2024-01-10T07:20:03;-10.99;93.78
49489;SHT31;35382;51.484;11.476;2024-01-10T07:22:30;-11.03;93.66
49489;SHT31;35382;51.484;11.476;2024-01-10T07:24:56;-11.05;93.87
49489;SHT31;35382;51.484;11.476;2024-01-10T07:27:21;-11.05;93.73
49489;SHT31;35382;51.484;11.476;2024-01-10T07:29:47;-10.98;93.65
49489;SHT31;35382;51.484;11.476;2024-01-10T07:32:12;-10.89;93.77
49489;SHT31;35382;51.484;11.476;2024-01-10T07:34:37;-10.78;93.48
49489;SHT31;35382;51.484;11.476;2024-01-10T07:37:03;-10.88;93.44
49489;SHT31;35382;51.484;11.476;2024-01-10T07:39:28;-10.85;93.54
49489;SHT31;35382;51.484;11.476;2024-01-10T07:41:56;-10.82;93.68
49489;SHT31;35382;51.484;11.476;2024-01-10T07:44:22;-10.76;93.51
49489;SHT31;35382;51.484;11.476;2024-01-10T07:46:47;-10.69;93.32
49489;SHT31;35382;51.484;11.476;2024-01-10T07:49:13;-10.68;93.21
49489;SHT31;35382;51.484;11.476;2024-01-10T07:51:38;-10.58;93.11
49489;SHT31;35382;51.484;11.476;2024-01-10T07:54:03;-10.44;92.73
49489;SHT31;35382;51.484;11.476;2024-01-10T07:56:29;-10.31;92.11
49489;SHT31;35382;51.484;11.476;2024-01-10T07:58:54;-10.27;92.00
49489;SHT31;35382;51.484;11.476;2024-01-10T08:01:19;-10.27;91.70
49489;SHT31;35382;51.484;11.476;2024-01-10T08:03:45;-10.14;91.69
49489;SHT31;35382;51.484;11.476;2024-01-10T08:06:10;-10.10;91.32
49489;SHT31;35382;51.484;11.476;2024-01-10T08:08:35;-9.99;90.59
49489;SHT31;35382;51.484;11.476;2024-01-10T08:11:01;-9.94;90.51
49489;SHT31;35382;51.484;11.476;2024-01-10T08:13:26;-9.94;90.98
49489;SHT31;35382;51.484;11.476;2024-01-10T08:15:51;-9.76;90.87
49489;SHT31;35382;51.484;11.476;2024-01-10T08:18:17;-9.76;90.29
49489;SHT31;35382;51.484;11.476;2024-01-10T08:20:42;-9.60;90.02
49489;SHT31;35382;51.484;11.476;2024-01-10T08:23:07;-9.40;89.23
49489;SHT31;35382;51.484;11.476;2024-01-10T08:25:33;-9.52;89.25
49489;SHT31;35382;51.484;11.476;2024-01-10T08:27:58;-9.55;89.30
49489;SHT31;35382;51.484;11.476;2024-01-10T08:30:24;-9.53;89.35
49489;SHT31;35382;51.484;11.476;2024-01-10T08:32:50;-9.49;89.39
49489;SHT31;35382;51.484;11.476;2024-01-10T08:35:16;-9.28;89.28
49489;SHT31;35382;51.484;11.476;2024-01-10T08:37:41;-8.95;88.39
49489;SHT31;35382;51.484;11.476;2024-01-10T08:40:07;-8.69;87.61
49489;SHT31;35382;51.484;11.476;2024-01-10T08:42:33;-8.55;87.49
49489;SHT31;35382;51.484;11.476;2024-01-10T08:44:58;-8.40;86.82
49489;SHT31;35382;51.484;11.476;2024-01-10T08:47:24;-8.34;86.81
49489;SHT31;35382;51.484;11.476;2024-01-10T08:49:49;-8.13;85.82
49489;SHT31;35382;51.484;11.476;2024-01-10T08:52:14;-8.05;85.28
49489;SHT31;35382;51.484;11.476;2024-01-10T08:54:40;-7.78;84.56
49489;SHT31;35382;51.484;11.476;2024-01-10T08:57:05;-7.97;84.64
49489;SHT31;35382;51.484;11.476;2024-01-10T08:59:30;-7.93;84.79
49489;SHT31;35382;51.484;11.476;2024-01-10T09:01:56;-7.74;84.16
49489;SHT31;35382;51.484;11.476;2024-01-10T09:04:21;-7.56;84.14
49489;SHT31;35382;51.484;11.476;2024-01-10T09:06:46;-7.63;83.89
49489;SHT31;35382;51.484;11.476;2024-01-10T09:09:12;-7.41;83.79
49489;SHT31;35382;51.484;11.476;2024-01-10T09:11:37;-7.59;83.65
49489;SHT31;35382;51.484;11.476;2024-01-10T09:14:05;-7.53;83.34
49489;SHT31;35382;51.484;11.476;2024-01-10T09:16:30;-7.42;84.08
49489;SHT31;35382;51.484;11.476;2024-01-10T09:18:56;-7.34;83.93
49489;SHT31;35382;51.484;11.476;2024-01-10T09:21:21;-7.31;83.85
49489;SHT31;35382;51.484;11.476;2024-01-10T09:23:46;-7.17;82.85
49489;SHT31;35382;51.484;11.476;2024-01-10T09:26:12;-7.31;82.91
49489;SHT31;35382;51.484;11.476;2024-01-10T09:28:37;-7.28;83.36
49489;SHT31;35382;51.484;11.476;2024-01-10T09:31:02;-7.36;83.53
49489;SHT31;35382;51.484;11.476;2024-01-10T09:33:30;-7.29;83.12
49489;SHT31;35382;51.484;11.476;2024-01-10T09:35:56;-7.11;82.84
49489;SHT31;35382;51.484;11.476;2024-01-10T09:38:22;-7.05;83.47
49489;SHT31;35382;51.484;11.476;2024-01-10T09:40:47;-6.97;82.24
49489;SHT31;35382;51.484;11.476;2024-01-10T09:43:12;-7.09;81.91
49489;SHT31;35382;51.484;11.476;2024-01-10T09:45:43;-6.97;83.06
49489;SHT31;35382;51.484;11.476;2024-01-10T09:48:08;-6.69;82.55
49489;SHT31;35382;51.484;11.476;2024-01-10T09:50:34;-6.76;81.79
49489;SHT31;35382;51.484;11.476;2024-01-10T09:53:05;-6.70;82.05
49489;SHT31;35382;51.484;11.476;2024-01-10T09:55:34;-6.77;82.00
49489;SHT31;35382;51.484;11.476;2024-01-10T09:58:07;-6.59;82.04
49489;SHT31;35382;51.484;11.476;2024-01-10T10:00:33;-6.50;81.32
49489;SHT31;35382;51.484;11.476;2024-01-10T10:03:00;-6.63;81.89
49489;SHT31;35382;51.484;11.476;2024-01-10T10:05:31;-6.47;81.93
49489;SHT31;35382;51.484;11.476;2024-01-10T10:07:57;-6.60;81.66
49489;SHT31;35382;51.484;11.476;2024-01-10T10:10:22;-6.29;81.09
49489;SHT31;35382;51.484;11.476;2024-01-10T10:12:50;-6.34;81.86
49489;SHT31;35382;51.484;11.476;2024-01-10T10:15:17;-6.01;80.97
49489;SHT31;35382;51.484;11.476;2024-01-10T10:17:50;-5.98;80.77
49489;SHT31;35382;51.484;11.476;2024-01-10T10:20:28;-5.96;81.14
49489;SHT31;35382;51.484;11.476;2024-01-10T10:23:07;-5.72;80.85
49489;SHT31;35382;51.484;11.476;2024-01-10T10:25:34;-5.67;79.77
49489;SHT31;35382;51.484;11.476;2024-01-10T10:28:01;-5.65;80.83
49489;SHT31;35382;51.484;11.476;2024-01-10T10:30:31;-5.59;80.11
49489;SHT31;35382;51.484;11.476;2024-01-10T10:32:57;-5.62;80.34
49489;SHT31;35382;51.484;11.476;2024-01-10T10:35:23;-5.57;79.98
49489;SHT31;35382;51.484;11.476;2024-01-10T10:37:49;-5.51;79.51
49489;SHT31;35382;51.484;11.476;2024-01-10T10:40:14;-5.52;80.04
49489;SHT31;35382;51.484;11.476;2024-01-10T10:42:44;-5.54;79.88
49489;SHT31;35382;51.484;11.476;2024-01-10T10:45:15;-5.48;79.58
49489;SHT31;35382;51.484;11.476;2024-01-10T10:47:43;-5.39;79.49
49489;SHT31;35382;51.484;11.476;2024-01-10T10:50:12;-5.25;79.13
49489;SHT31;35382;51.484;11.476;2024-01-10T10:52:41;-5.24;79.04
49489;SHT31;35382;51.484;11.476;2024-01-10T10:55:07;-5.01;79.02
49489;SHT31;35382;51.484;11.476;2024-01-10T10:57:33;-5.05;78.31
49489;SHT31;35382;51.484;11.476;2024-01-10T10:59:59;-5.10;78.71
49489;SHT31;35382;51.484;11.476;2024-01-10T11:02:25;-5.15;78.97
49489;SHT31;35382;51.484;11.476;2024-01-10T11:04:53;-5.27;78.90
49489;SHT31;35382;51.484;11.476;2024-01-10T11:07:19;-5.11;78.45
49489;SHT31;35382;51.484;11.476;2024-01-10T11:09:46;-5.05;78.17
49489;SHT31;35382;51.484;11.476;2024-01-10T11:24:14;-4.56;78.17
49489;SHT31;35382;51.484;11.476;2024-01-10T11:26:39;-4.52;77.78
49489;SHT31;35382;51.484;11.476;2024-01-10T11:29:05;-4.50;77.65
49489;SHT31;35382;51.484;11.476;2024-01-10T11:31:31;-4.55;77.63
49489;SHT31;35382;51.484;11.476;2024-01-10T11:33:58;-4.25;77.12
49489;SHT31;35382;51.484;11.476;2024-01-10T11:36:23;-4.39;76.66
49489;SHT31;35382;51.484;11.476;2024-01-10T11:38:49;-4.06;77.03
49489;SHT31;35382;51.484;11.476;2024-01-10T11:41:23;-4.11;76.99
49489;SHT31;35382;51.484;11.476;2024-01-10T11:46:40;-4.19;77.43
49489;SHT31;35382;51.484;11.476;2024-01-10T11:49:09;-4.32;76.77
49489;SHT31;35382;51.484;11.476;2024-01-10T11:51:37;-4.16;77.01
49489;SHT31;35382;51.484;11.476;2024-01-10T11:54:03;-4.25;77.71
49489;SHT31;35382;51.484;11.476;2024-01-10T11:56:39;-4.25;76.75
49489;SHT31;35382;51.484;11.476;2024-01-10T11:59:13;-4.29;76.62
49489;SHT31;35382;51.484;11.476;2024-01-10T12:01:39;-4.44;76.65
49489;SHT31;35382;51.484;11.476;2024-01-10T12:04:06;-4.57;77.05
49489;SHT31;35382;51.484;11.476;2024-01-10T12:06:32;-4.59;77.19
49489;SHT31;35382;51.484;11.476;2024-01-10T12:08:58;-4.67;78.00
49489;SHT31;35382;51.484;11.476;2024-01-10T12:11:23;-4.66;77.73
49489;SHT31;35382;51.484;11.476;2024-01-10T12:13:49;-4.45;77.48
49489;SHT31;35382;51.484;11.476;2024-01-10T12:16:15;-4.42;76.82
49489;SHT31;35382;51.484;11.476;2024-01-10T12:18:42;-4.35;77.44
49489;SHT31;35382;51.484;11.476;2024-01-10T12:21:08;-4.36;77.68
49489;SHT31;35382;51.484;11.476;2024-01-10T12:23:33;-4.22;77.71
49489;SHT31;35382;51.484;11.476;2024-01-10T12:26:01;-4.23;76.54
49489;SHT31;35382;51.484;11.476;2024-01-10T12:28:27;-4.39;77.66
49489;SHT31;35382;51.484;11.476;2024-01-10T12:30:52;-4.16;77.65
49489;SHT31;35382;51.484;11.476;2024-01-10T12:33:22;-4.21;76.33
49489;SHT31;35382;51.484;11.476;2024-01-10T12:36:07;-4.25;77.17
49489;SHT31;35382;51.484;11.476;2024-01-10T12:38:33;-4.29;77.18
49489;SHT31;35382;51.484;11.476;2024-01-10T12:40:58;-4.11;77.86
49489;SHT31;35382;51.484;11.476;2024-01-10T12:43:24;-4.03;77.71
49489;SHT31;35382;51.484;11.476;2024-01-10T12:46:11;-4.13;77.03
49489;SHT31;35382;51.484;11.476;2024-01-10T12:48:38;-4.18;77.87
49489;SHT31;35382;51.484;11.476;2024-01-10T12:51:04;-4.13;77.08
49489;SHT31;35382;51.484;11.476;2024-01-10T12:53:29;-4.01;77.37
49489;SHT31;35382;51.484;11.476;2024-01-10T12:55:57;-4.13;77.14
49489;SHT31;35382;51.484;11.476;2024-01-10T12:58:22;-4.16;76.53
49489;SHT31;35382;51.484;11.476;2024-01-10T13:00:47;-4.29;76.52
49489;SHT31;35382;51.484;11.476;2024-01-10T13:03:13;-4.23;76.62
49489;SHT31;35382;51.484;11.476;2024-01-10T13:05:38;-4.21;76.18
49489;SHT31;35382;51.484;11.476;2024-01-10T13:08:04;-4.28;76.09
49489;SHT31;35382;51.484;11.476;2024-01-10T13:10:29;-4.32;76.50
49489;SHT31;35382;51.484;11.476;2024-01-10T13:12:55;-4.36;76.92
49489;SHT31;35382;51.484;11.476;2024-01-10T13:15:20;-4.21;76.44
49489;SHT31;35382;51.484;11.476;2024-01-10T13:17:45;-4.42;76.97
49489;SHT31;35382;51.484;11.476;2024-01-10T13:20:11;-4.59;76.61
49489;SHT31;35382;51.484;11.476;2024-01-10T13:22:36;-4.63;77.36
49489;SHT31;35382;51.484;11.476;2024-01-10T13:25:01;-4.39;77.67
49489;SHT31;35382;51.484;11.476;2024-01-10T13:27:29;-4.44;77.63
49489;SHT31;35382;51.484;11.476;2024-01-10T13:29:54;-4.37;77.73
49489;SHT31;35382;51.484;11.476;2024-01-10T13:32:20;-4.46;77.61
49489;SHT31;35382;51.484;11.476;2024-01-10T13:34:46;-4.57;78.00
49489;SHT31;35382;51.484;11.476;2024-01-10T13:37:11;-4.53;77.53
49489;SHT31;35382;51.484;11.476;2024-01-10T13:39:36;-4.62;78.04
49489;SHT31;35382;51.484;11.476;2024-01-10T13:42:02;-4.65;77.71
49489;SHT31;35382;51.484;11.476;2024-01-10T13:44:27;-4.55;78.12
49489;SHT31;35382;51.484;11.476;2024-01-10T13:46:53;-4.60;77.98
49489;SHT31;35382;51.484;11.476;2024-01-10T13:49:18;-4.52;77.56
49489;SHT31;35382;51.484;11.476;2024-01-10T13:51:44;-4.59;77.86
49489;SHT31;35382;51.484;11.476;2024-01-10T13:54:10;-4.52;76.67
49489;SHT31;35382;51.484;11.476;2024-01-10T13:56:36;-4.56;77.55
49489;SHT31;35382;51.484;11.476;2024-01-10T13:59:01;-4.69;78.19
49489;SHT31;35382;51.484;11.476;2024-01-10T14:01:26;-4.57;77.92
49489;SHT31;35382;51.484;11.476;2024-01-10T14:03:52;-4.70;78.72
49489;SHT31;35382;51.484;11.476;2024-01-10T14:06:17;-4.62;79.11
49489;SHT31;35382;51.484;11.476;2024-01-10T14:08:43;-4.76;79.28
49489;SHT31;35382;51.484;11.476;2024-01-10T14:11:08;-4.77;79.25
49489;SHT31;35382;51.484;11.476;2024-01-10T14:13:33;-4.81;79.28
49489;SHT31;35382;51.484;11.476;2024-01-10T14:15:59;-4.81;79.84
49489;SHT31;35382;51.484;11.476;2024-01-10T14:18:24;-4.80;79.91
49489;SHT31;35382;51.484;11.476;2024-01-10T14:20:49;-4.83;79.79
49489;SHT31;35382;51.484;11.476;2024-01-10T14:23:15;-4.99;80.12
49489;SHT31;35382;51.484;11.476;2024-01-10T14:25:40;-5.03;80.43
49489;SHT31;35382;51.484;11.476;2024-01-10T14:28:05;-5.04;80.99
49489;SHT31;35382;51.484;11.476;2024-01-10T14:30:31;-5.10;80.88
49489;SHT31;35382;51.484;11.476;2024-01-10T14:32:56;-5.18;80.71
49489;SHT31;35382;51.484;11.476;2024-01-10T14:35:21;-5.18;80.61
49489;SHT31;35382;51.484;11.476;2024-01-10T14:37:47;-5.25;80.55
49489;SHT31;35382;51.484;11.476;2024-01-10T14:40:12;-5.39;80.34
49489;SHT31;35382;51.484;11.476;2024-01-10T14:42:37;-5.37;80.49
49489;SHT31;35382;51.484;11.476;2024-01-10T14:45:03;-5.47;81.20
49489;SHT31;35382;51.484;11.476;2024-01-10T14:47:28;-5.55;80.87
49489;SHT31;35382;51.484;11.476;2024-01-10T14:49:54;-5.67;81.84
49489;SHT31;35382;51.484;11.476;2024-01-10T14:52:21;-5.78;81.53
49489;SHT31;35382;51.484;11.476;2024-01-10T14:54:46;-5.88;81.69
49489;SHT31;35382;51.484;11.476;2024-01-10T14:57:11;-5.88;81.93
49489;SHT31;35382;51.484;11.476;2024-01-10T14:59:37;-5.92;82.07
49489;SHT31;35382;51.484;11.476;2024-01-10T15:02:02;-6.02;81.89
49489;SHT31;35382;51.484;11.476;2024-01-10T15:04:30;-6.10;82.53
49489;SHT31;35382;51.484;11.476;2024-01-10T15:06:56;-6.23;83.03
49489;SHT31;35382;51.484;11.476;2024-01-10T15:09:21;-5.93;81.90
49489;SHT31;35382;51.484;11.476;2024-01-10T15:11:46;-6.30;83.14
49489;SHT31;35382;51.484;11.476;2024-01-10T15:14:12;-6.50;84.19